Unbenanntes Dokument
Flugplatz Bielefeld Platzwetter

 

Aktuelles Platzwetter am Flugplatz Bielefeld EDLI

16.10.18 ,20:46 Uhr

METAR EDLI 162045Z 08001KT 9999 ///156 15/14 Q1021

 

Windwerte

 

Wolkenuntergrenzen

Wind aktuell:050 ° mit 1 kt
Wind 10 min Extrem:
50 ° bis 110 ° mit 1 kt bis 2 kt
Seitenwindkomponente: -0.8 kt
Wolkengrenze 1: 15600 ft
Wolkengrenze 2:
Wolkengrenze 3:

Webcam

Temperatur

       

Sichtweite:

20.000 Meter

15.4 °C
Taupunkt: 14.5 °C
Luftfeuchtigkeit: 94 %

Luftdruck:

QNH: 1021 hPa (30.15 in Hg)
QFE: 1004 hPa (29.65 in Hg)

Diese Daten werden automatisch ermittelt bzw. übertragen und sind nicht geprüft. Für die Richtigkeit wird daher keine Gewähr übernommen. Sie ersetzen im übrigen nicht die Flugwetterberatung. Alle Zeitangaben beziehen sich auf UTC. Die Seite wird einmal die Minute aktualisiert! Sollten Sie ein ältere Seite haben, so drücken Sie bitte auf den Reload Button Ihres Browsers!